KHLR

Hood AAF Airport

Fort Hood(Killeen), Texas, USA
METAR KHLR 201512Z AUTO 16016G21KT 8SM -RA OVC010 18/18 A2988 RMK AO2 LTG DSNT NW RAB12 CIG 010V012 SLP111
Observed Flight Rules
Feb-20 @ 15:12 UTC (2 hours ago) Marginal Visual Flight Rules
Wind Visibility Clouds Conditions
160° at 16 knots
 Gusting to 21 knots
8 miles
  • Overcast at 1,000' AGL
  • Light Rain
Temperatures Readings
Current 18°C / 64°F
Dewpoint 18°C / 64°F
Humidity 100%
Altimeter 29.88" Hg
Pressure 1011.1 hPa
Elevation 283
METAR KHLR 201512Z AUTO 16016G21KT 8SM -RA OVC010 18/18 A2988 RMK AO2 LTG DSNT NW RAB12 CIG 010V012 SLP111
Observed Flight Rules
Feb-20 @ 15:12 UTC
(2 hours ago)
MVFR
Wind Visibility
160° at 16 knots
 Gusting to 21 knots
8 miles
Clouds
  • Overcast at 1,000' AGL
Conditions
  • Light Rain
Temperature Dewpoint
18°C / 64°F 18°C / 64°F
Humidity Altimeter Pressure
100% 29.88" Hg 1011.1 hPa